aviador You're here:

KNEW Decoded Metar

NEW ORLEANS/LAKE in LA, USA
Report Time2017-09-21 12:53:00
UTC Time2017-09-21 13:50:16
Flight Rules vfr VFR
Wind010° at 06 kt
W.Decomp.*RWY 36: 5.9 kt HW 0.8 kt RCW
RWY 09: 0.8 kt HW 5.9 kt LCW
W.Rank010° ranks 11
Current wind is below 010° avg. (11.0)
Visibility9999 m
Phenomena:N/A
Clouds:N/A
Expected CloudBase > 1,200 ft AGL from Temp-Dew spread
CeilingNone
Temp27°C (ISA +12)
Dew Point24°C (84% RH)
Heat Index30.1°C
QNH1017 hPa
Density Alt1,654 ft
Elevation10 ft
Report Wrong Elevation
Raw Report
KNEW 211253Z 01006KT 10SM CLR 27/24 A3004 RMK AO2 SLP164
T02720239=

Extra information for KNEW:More info

Metar Taf Metar & Taf Last 4 Metars F.Rules Stats Wind Profile Meteogram Temp Stats Airport Information Weather charts Add Link Nearby VenuesMetar ALERT Operation Metar Decoded Social comments

AIRNAV info for KNEW